Time;durP1;ratioP1;P1;durP2;ratioP2;P2;SDS_P1;SDS_P2;PMS_P1;PMS_P2;Temp;Humidity;BMP_temperature;BMP_pressure;BME280_temperature;BME280_humidity;BME280_pressure;Samples;Min_cycle;Max_cycle;Signal;HPM_P1;HPM_P2
2022/05/13 00:02:13;;;;;;;8.18;3.83;;;;;;;15.75;46.80;94247.31;5071807;28;20040;-92
2022/05/13 00:04:53;;;;;;;;;;;;;;;;;;;;;
2022/05/13 00:07:19;;;;;;;5.75;2.97;;;;;;;15.76;46.83;94248.06;5066572;28;20064;-93
2022/05/13 00:09:57;;;;;;;8.23;3.22;;;;;;;15.73;46.87;94251.44;5065291;28;20041;-92
2022/05/13 00:12:34;;;;;;;9.35;3.10;;;;;;;15.64;47.41;94248.81;5047467;28;20327;-92
2022/05/13 00:15:02;;;;;;;6.80;3.72;;;;;;;15.64;47.65;94238.06;5065342;28;20023;-93
2022/05/13 00:17:30;;;;;;;6.53;3.35;;;;;;;15.57;47.97;94251.28;5065020;28;20330;-92
2022/05/13 00:19:56;;;;;;;7.03;2.97;;;;;;;15.52;47.74;94243.44;5064915;28;20023;-91
2022/05/13 00:22:25;;;;;;;7.15;3.10;;;;;;;15.44;48.04;94251.25;5065198;28;20017;-91
2022/05/13 00:35:33;;;;;;;7.05;3.58;;;;;;;15.21;49.71;94242.84;4926659;29;20067;-91
2022/05/13 00:37:59;;;;;;;9.05;3.38;;;;;;;15.17;49.94;94246.53;4932095;29;20035;-90
2022/05/13 00:40:25;;;;;;;6.68;3.78;;;;;;;15.19;49.83;94255.81;5035003;28;20044;-90
2022/05/13 00:42:57;;;;;;;7.88;3.55;;;;;;;15.18;50.04;94259.63;5064541;28;20024;-90
2022/05/13 00:45:22;;;;;;;6.13;3.67;;;;;;;15.14;49.97;94253.34;5064373;28;20100;-90
2022/05/13 00:47:48;;;;;;;5.05;2.95;;;;;;;15.08;49.92;94251.19;5064186;28;20338;-90
2022/05/13 00:50:14;;;;;;;8.25;3.80;;;;;;;15.04;50.26;94249.19;5064264;28;20028;-90
2022/05/13 00:52:48;;;;;;;7.53;3.70;;;;;;;15.00;50.19;94247.47;5064226;28;20029;-90
2022/05/13 00:55:22;;;;;;;7.47;3.75;;;;;;;14.99;50.63;94246.69;5064338;28;20104;-91
2022/05/13 00:57:53;;;;;;;8.85;3.80;;;;;;;14.92;50.77;94241.09;5064023;28;20155;-91
2022/05/13 01:00:18;;;;;;;7.15;4.13;;;;;;;14.90;51.02;94246.00;5064136;28;20029;-90
2022/05/13 01:02:48;;;;;;;8.23;3.55;;;;;;;14.90;51.38;94256.72;5064118;28;20334;-92
2022/05/13 01:05:16;;;;;;;12.55;3.88;;;;;;;14.80;51.58;94243.72;5064146;28;20021;-91
2022/05/13 01:07:41;;;;;;;6.32;3.40;;;;;;;14.75;51.83;94243.91;5046801;28;20191;-92
2022/05/13 01:10:13;;;;;;;8.70;4.15;;;;;;;14.73;51.84;94254.97;5064477;28;20021;-90
2022/05/13 01:12:44;;;;;;;7.85;4.22;;;;;;;14.69;52.08;94256.75;5064297;28;20032;-91
2022/05/13 01:15:13;;;;;;;7.82;4.20;;;;;;;14.64;51.24;94251.59;5064020;28;20037;-91
2022/05/13 01:20:32;;;;;;;11.52;3.70;;;;;;;14.70;50.92;94254.88;5064314;28;20071;-92
2022/05/13 01:23:01;;;;;;;6.82;3.78;;;;;;;14.69;51.64;94255.97;5063841;28;20329;-91
2022/05/13 01:25:29;;;;;;;7.95;4.03;;;;;;;14.66;51.93;94243.22;5063728;28;20346;-91
2022/05/13 01:27:57;;;;;;;8.93;3.70;;;;;;;14.61;51.96;94247.69;5063775;28;20028;-91
2022/05/13 01:30:29;;;;;;;9.43;3.47;;;;;;;14.50;52.31;94243.78;5063747;28;20013;-91
2022/05/13 01:32:55;;;;;;;10.07;4.28;;;;;;;14.52;52.34;94243.47;5063811;28;20017;-93
2022/05/13 01:35:22;;;;;;;8.25;3.17;;;;;;;14.47;52.27;94236.41;5063706;28;20047;-93
2022/05/13 01:37:48;;;;;;;5.30;3.50;;;;;;;14.42;52.18;94237.38;5063796;28;20016;-92
2022/05/13 01:40:14;;;;;;;8.38;3.38;;;;;;;14.40;51.99;94231.56;5063873;28;20013;-91
2022/05/13 01:42:40;;;;;;;8.82;3.25;;;;;;;14.36;51.93;94230.63;5064135;28;20048;-92
2022/05/13 01:45:07;;;;;;;4.70;3.30;;;;;;;14.36;52.11;94224.50;5064229;28;20017;-92
2022/05/13 01:47:34;;;;;;;4.65;3.35;;;;;;;14.35;52.15;94231.75;5067650;28;20311;-92
2022/05/13 01:50:00;;;;;;;8.75;3.47;;;;;;;14.33;52.13;94222.44;5068020;28;20327;-93
2022/05/13 01:52:25;;;;;;;4.82;2.67;;;;;;;14.30;51.67;94223.13;5050238;28;20029;-91
2022/05/13 01:54:51;;;;;;;7.55;2.97;;;;;;;14.29;52.24;94218.84;5067889;28;20021;-93
2022/05/13 01:57:17;;;;;;;8.07;3.15;;;;;;;14.30;52.51;94223.13;5067830;28;20024;-92
2022/05/13 01:59:42;;;;;;;8.43;3.30;;;;;;;14.27;52.65;94224.56;5067531;28;20311;-92
2022/05/13 02:02:08;;;;;;;6.32;3.40;;;;;;;14.22;52.28;94220.16;5067576;28;20020;-92
2022/05/13 02:04:33;;;;;;;5.13;3.10;;;;;;;14.21;51.60;94223.97;5067484;28;20017;-91
2022/05/13 02:06:59;;;;;;;5.47;2.97;;;;;;;14.23;51.47;94227.13;5067411;28;20025;-93
2022/05/13 02:09:25;;;;;;;8.05;3.35;;;;;;;14.23;51.49;94221.75;5067257;28;20044;-91
2022/05/13 02:11:51;;;;;;;5.82;3.10;;;;;;;14.22;51.85;94222.84;5067834;28;20020;-92
2022/05/13 02:14:18;;;;;;;5.03;3.35;;;;;;;14.19;52.19;94231.56;5067187;28;20035;-91
2022/05/13 02:16:43;;;;;;;4.72;2.80;;;;;;;14.14;51.97;94234.41;5067235;28;20016;-91
2022/05/13 02:19:10;;;;;;;7.38;3.00;;;;;;;14.17;51.16;94233.78;5067132;28;20024;-91
2022/05/13 02:21:37;;;;;;;8.13;3.22;;;;;;;14.16;51.87;94237.56;5066943;28;20025;-91
2022/05/13 02:24:03;;;;;;;8.10;3.35;;;;;;;14.13;52.26;94240.91;5066889;28;20036;-91
2022/05/13 02:26:29;;;;;;;5.07;2.97;;;;;;;14.11;52.35;94242.34;5067369;28;20056;-91
2022/05/13 02:28:55;;;;;;;4.65;3.35;;;;;;;14.10;51.90;94238.84;5067362;28;20307;-90
2022/05/13 02:31:20;;;;;;;6.18;3.13;;;;;;;14.12;51.76;94255.41;5066880;28;20025;-89
2022/05/13 02:33:46;;;;;;;5.00;3.40;;;;;;;14.10;51.47;94249.59;5066913;28;20029;-91
2022/05/13 02:36:15;;;;;;;8.20;3.17;;;;;;;14.09;51.47;94242.66;5066836;28;20051;-91
2022/05/13 02:38:40;;;;;;;6.75;2.88;;;;;;;14.11;52.18;94261.88;5066563;28;20035;-89
2022/05/13 02:41:12;;;;;;;5.63;3.60;;;;;;;14.09;52.35;94257.97;5066488;28;20056;-89
2022/05/13 02:43:38;;;;;;;6.18;3.40;;;;;;;14.06;52.14;94259.38;5066863;28;20031;-90
2022/05/13 02:46:04;;;;;;;5.85;3.47;;;;;;;14.05;52.95;94263.19;5066596;28;20028;-90
2022/05/13 02:48:30;;;;;;;6.25;3.13;;;;;;;14.01;53.17;94259.59;5066579;28;20086;-90
2022/05/13 02:50:55;;;;;;;6.22;2.95;;;;;;;13.98;53.40;94260.22;5066641;28;20092;-92
2022/05/13 02:53:22;;;;;;;6.03;3.33;;;;;;;13.92;53.96;94253.47;5066866;28;20361;-91
2022/05/13 02:55:48;;;;;;;5.22;3.35;;;;;;;13.83;54.21;94251.63;5066616;28;20023;-91
2022/05/13 02:58:14;;;;;;;5.30;3.03;;;;;;;13.79;54.21;94250.72;5064962;28;20025;-91
2022/05/13 03:00:39;;;;;;;7.05;3.72;;;;;;;13.77;54.48;94252.16;5066676;28;20029;-93
2022/05/13 03:03:06;;;;;;;11.93;4.10;;;;;;;13.73;54.97;94252.00;5066424;28;20315;-92
2022/05/13 03:05:32;;;;;;;6.70;3.90;;;;;;;13.68;54.82;94254.06;5066128;28;20021;-91
2022/05/13 03:08:01;;;;;;;6.25;3.83;;;;;;;13.55;55.26;94250.50;5066305;28;20053;-92
2022/05/13 03:10:28;;;;;;;10.52;4.53;;;;;;;13.53;55.59;94244.69;5066563;28;20041;-91
2022/05/13 03:12:53;;;;;;;5.95;3.58;;;;;;;13.51;55.71;94244.22;5048938;28;20025;-91
2022/05/13 03:15:19;;;;;;;6.35;3.75;;;;;;;13.48;55.80;94244.88;5066127;28;20024;-92
2022/05/13 03:17:44;;;;;;;8.02;4.30;;;;;;;13.49;55.69;94251.78;5066128;28;20084;-92
2022/05/13 03:20:14;;;;;;;4.63;3.13;;;;;;;13.49;55.60;94251.78;5066142;28;20075;-92
2022/05/13 03:22:40;;;;;;;5.80;3.88;;;;;;;13.41;55.18;94246.16;5066087;28;20080;-92
2022/05/13 03:25:06;;;;;;;7.53;3.55;;;;;;;13.42;55.49;94250.41;5066039;28;20087;-92
2022/05/13 03:27:31;;;;;;;5.78;3.88;;;;;;;13.45;55.61;94257.00;5065961;28;20048;-93
2022/05/13 03:29:57;;;;;;;11.40;4.03;;;;;;;13.44;56.04;94260.81;5066168;28;20051;-92
2022/05/13 03:32:23;;;;;;;6.18;3.80;;;;;;;13.46;56.52;94261.28;5065683;28;20158;-92
2022/05/13 03:34:48;;;;;;;6.85;4.00;;;;;;;13.49;56.72;94273.22;5066065;28;20041;-93
2022/05/13 03:37:14;;;;;;;7.18;4.00;;;;;;;13.49;56.58;94270.53;5066178;28;20021;-94
2022/05/13 03:39:39;;;;;;;10.60;5.30;;;;;;;13.49;56.43;94279.34;5065721;28;20393;-94
2022/05/13 03:42:05;;;;;;;5.50;3.55;;;;;;;13.52;55.88;94272.59;5065592;28;20318;-93
2022/05/13 03:44:31;;;;;;;5.18;3.38;;;;;;;13.57;55.42;94278.53;5065745;28;20049;-91
2022/05/13 03:46:58;;;;;;;6.05;3.80;;;;;;;13.60;55.79;94279.81;5065824;28;20047;-94
2022/05/13 03:49:24;;;;;;;15.18;4.35;;;;;;;13.67;55.89;94272.03;5065869;28;20329;-92
2022/05/13 03:51:50;;;;;;;7.97;4.68;;;;;;;13.74;56.03;94263.50;5065149;28;20055;-73
2022/05/13 03:54:15;;;;;;;7.07;4.57;;;;;;;13.75;56.51;94270.44;5064766;28;20067;-93
2022/05/13 03:56:41;;;;;;;6.15;4.55;;;;;;;13.77;56.68;94269.00;5065757;28;20013;-93
2022/05/13 03:59:06;;;;;;;9.15;4.53;;;;;;;13.85;56.74;94281.56;5065466;28;20215;-94
2022/05/13 04:01:32;;;;;;;8.38;5.03;;;;;;;13.88;56.42;94277.47;5065399;28;20025;-94
2022/05/13 04:03:57;;;;;;;9.55;5.20;;;;;;;13.93;56.58;94289.91;5065425;28;20036;-93
2022/05/13 04:09:07;;;;;;;12.85;5.93;;;;;;;14.01;56.72;94305.91;5065213;28;20052;-94
2022/05/13 04:11:37;;;;;;;18.27;6.57;;;;;;;14.08;56.45;94304.63;5065151;28;20083;-93
2022/05/13 04:16:50;;;;;;;12.00;5.13;;;;;;;14.13;56.32;94302.56;5065084;28;20207;-91
2022/05/13 04:19:16;;;;;;;11.75;5.82;;;;;;;14.20;56.04;94300.13;5064956;28;20068;-93
2022/05/13 04:21:41;;;;;;;15.57;6.25;;;;;;;14.30;56.02;94300.88;5064964;28;20033;-92
2022/05/13 04:24:09;;;;;;;15.75;6.20;;;;;;;14.37;56.15;94293.09;5064803;28;20028;-91
2022/05/13 04:26:35;;;;;;;12.55;6.20;;;;;;;14.47;55.98;94298.09;5064503;28;20116;-92
2022/05/13 04:29:01;;;;;;;14.32;6.40;;;;;;;14.57;55.53;94294.25;5064407;28;20319;-92
2022/05/13 04:31:32;;;;;;;15.55;7.13;;;;;;;14.69;55.48;94297.00;5064480;28;20017;-91
2022/05/13 04:34:00;;;;;;;16.85;6.45;;;;;;;14.71;55.16;94299.34;5064922;28;20095;-91
2022/05/13 04:36:26;;;;;;;17.88;8.70;;;;;;;14.76;54.90;94308.00;5064897;28;20033;-91
2022/05/13 04:38:53;;;;;;;18.25;7.10;;;;;;;14.77;55.12;94306.88;5063579;28;20243;-91
2022/05/13 04:44:09;;;;;;;9.60;6.53;;;;;;;14.76;55.06;94304.53;5064434;28;20223;-93
2022/05/13 04:46:35;;;;;;;17.58;6.82;;;;;;;14.72;54.61;94306.31;5047068;28;20394;-92
2022/05/13 04:49:01;;;;;;;17.73;7.13;;;;;;;14.83;54.65;94296.72;5047294;28;20043;-94
2022/05/13 04:51:26;;;;;;;14.65;6.82;;;;;;;14.92;54.50;94304.69;5064792;28;20059;-93
2022/05/13 04:53:54;;;;;;;21.77;7.75;;;;;;;15.00;54.30;94311.88;5065329;28;20337;-92
2022/05/13 04:56:21;;;;;;;18.85;7.50;;;;;;;15.04;54.40;94308.22;5048896;28;20033;-91
2022/05/13 04:58:47;;;;;;;18.10;8.85;;;;;;;15.09;53.77;94309.13;5067425;28;20039;-92
2022/05/13 05:01:38;;;;;;;28.67;8.60;;;;;;;15.15;53.90;94307.81;5066430;28;20033;-90
2022/05/13 05:04:13;;;;;;;22.25;8.00;;;;;;;15.24;54.15;94311.19;5064578;28;20021;-90
2022/05/13 05:06:38;;;;;;;18.58;7.95;;;;;;;15.33;53.78;94311.13;5048244;28;20055;-90
2022/05/13 05:09:24;;;;;;;20.85;8.38;;;;;;;15.42;53.86;94311.81;5066037;28;20048;-90
2022/05/13 05:11:50;;;;;;;25.23;9.10;;;;;;;15.43;53.44;94322.22;5068951;28;20355;-94
2022/05/13 05:14:16;;;;;;;18.95;8.77;;;;;;;15.45;53.51;94322.69;5072593;28;20084;-93
2022/05/13 05:16:41;;;;;;;20.10;8.35;;;;;;;15.49;53.71;94322.00;5069293;28;20030;-83
2022/05/13 05:19:28;;;;;;;46.40;8.32;;;;;;;15.51;53.41;94327.81;5063518;28;20047;-82
2022/05/13 05:21:53;;;;;;;26.33;8.57;;;;;;;15.54;53.87;94327.19;5061582;28;20033;-81
2022/05/13 05:24:19;;;;;;;15.15;7.57;;;;;;;15.56;53.65;94317.66;5062996;28;20027;-81
2022/05/13 05:26:44;;;;;;;44.60;8.32;;;;;;;15.69;52.96;94323.81;5062740;28;20029;-91
2022/05/13 05:29:10;;;;;;;20.88;7.40;;;;;;;15.74;52.78;94322.88;5050383;28;20021;-92
2022/05/13 05:31:36;;;;;;;26.90;8.57;;;;;;;15.82;52.49;94325.47;5063649;28;20024;-90
2022/05/13 05:34:01;;;;;;;23.23;7.60;;;;;;;15.88;52.28;94327.94;5065503;28;20383;-95
2022/05/13 05:36:27;;;;;;;26.27;8.05;;;;;;;15.98;51.68;94322.91;5066600;28;20016;-92
2022/05/13 05:38:52;;;;;;;20.42;7.70;;;;;;;16.03;51.50;94329.94;5049444;28;20028;-90
2022/05/13 05:41:18;;;;;;;21.00;7.30;;;;;;;16.08;50.95;94326.25;5063922;28;20053;-93
2022/05/13 05:43:44;;;;;;;25.10;7.15;;;;;;;16.14;49.91;94324.91;5064760;28;20022;-91
2022/05/13 05:46:09;;;;;;;17.38;7.20;;;;;;;16.05;50.58;94333.09;5064941;28;20021;-91
2022/05/13 05:48:35;;;;;;;21.65;6.32;;;;;;;16.14;49.93;94323.03;5064117;28;20041;-90
2022/05/13 05:51:00;;;;;;;29.60;6.93;;;;;;;16.23;49.43;94326.34;5066571;28;20021;-91
2022/05/13 05:59:00;;;;;;;15.23;5.07;;;;;;;16.57;47.40;94321.63;5064664;28;20032;-89
2022/05/13 06:01:26;;;;;;;18.35;6.28;;;;;;;16.73;48.37;94328.97;5064045;28;20029;-90
2022/05/13 06:03:51;;;;;;;27.48;7.78;;;;;;;16.85;49.46;94320.91;5064991;28;20029;-78
2022/05/13 06:06:17;;;;;;;25.83;7.05;;;;;;;16.90;48.79;94323.38;5062222;28;20227;-71
2022/05/13 06:08:42;;;;;;;23.45;7.90;;;;;;;16.98;49.30;94316.28;5062042;28;20251;-73
2022/05/13 06:11:09;;;;;;;13.02;6.65;;;;;;;17.03;48.43;94310.63;5062164;28;20032;-73
2022/05/13 06:13:34;;;;;;;11.60;6.20;;;;;;;17.08;49.10;94309.63;5062368;28;20041;-73
2022/05/13 06:16:00;;;;;;;17.40;6.07;;;;;;;17.20;48.57;94312.28;5062599;28;20032;-72
2022/05/13 06:18:25;;;;;;;20.20;5.78;;;;;;;17.31;48.11;94309.84;5062202;28;20250;-72
2022/05/13 06:20:51;;;;;;;19.23;6.38;;;;;;;17.39;47.78;94309.69;5061907;28;20127;-71
2022/05/13 06:23:16;;;;;;;20.02;6.60;;;;;;;17.52;47.49;94309.63;5065678;28;20049;-93
2022/05/13 06:25:42;;;;;;;21.20;6.10;;;;;;;17.65;46.83;94308.44;5067250;28;20051;-91
2022/05/13 06:28:07;;;;;;;23.30;5.63;;;;;;;17.73;45.92;94309.41;5070441;28;20052;-92
2022/05/13 06:30:35;;;;;;;53.70;7.72;;;;;;;17.73;46.24;94309.41;5066758;28;20029;-91
2022/05/13 06:33:02;;;;;;;17.73;7.05;;;;;;;17.72;46.12;94307.81;5049362;28;20045;-91
2022/05/13 06:35:30;;;;;;;15.30;6.70;;;;;;;17.71;46.80;94298.16;5066776;28;20091;-90
2022/05/13 06:37:56;;;;;;;17.17;5.97;;;;;;;17.72;46.69;94307.81;5067224;28;20028;-92
2022/05/13 06:40:22;;;;;;;11.15;5.93;;;;;;;17.82;46.49;94300.00;5065979;28;20060;-90
2022/05/13 06:42:49;;;;;;;19.98;6.97;;;;;;;17.93;47.03;94299.50;5066717;28;20348;-91
2022/05/13 06:45:15;;;;;;;13.80;6.15;;;;;;;18.04;46.88;94303.25;5049207;28;20021;-92
2022/05/13 06:47:41;;;;;;;12.15;6.32;;;;;;;18.16;46.78;94291.56;5066573;28;20041;-91
2022/05/13 06:50:09;;;;;;;13.07;6.28;;;;;;;18.25;46.32;94298.31;5066648;28;20037;-91
2022/05/13 06:52:35;;;;;;;20.20;5.90;;;;;;;18.34;46.62;94300.06;5066792;28;20017;-91
2022/05/13 06:55:00;;;;;;;19.60;5.68;;;;;;;18.41;46.12;94297.53;5049159;28;20096;-92
2022/05/13 06:57:26;;;;;;;14.93;5.40;;;;;;;18.56;45.65;94285.91;5066068;28;20020;-92
2022/05/13 07:00:38;;;;;;;14.93;5.53;;;;;;;18.75;44.88;94289.78;5068669;28;20055;-79
2022/05/13 07:03:06;;;;;;;16.33;5.63;;;;;;;18.88;44.23;94290.44;5045499;28;20037;-81
2022/05/13 07:05:32;;;;;;;14.18;5.03;;;;;;;19.02;43.57;94286.09;5065075;28;20033;-80
2022/05/13 07:07:58;;;;;;;13.02;4.50;;;;;;;19.16;42.87;94276.72;5064990;28;20071;-80
2022/05/13 07:10:24;;;;;;;14.10;4.55;;;;;;;19.26;42.83;94278.84;5064875;28;20311;-80
2022/05/13 07:12:49;;;;;;;11.32;4.60;;;;;;;19.30;42.21;94274.28;5065047;28;20025;-81
2022/05/13 07:15:17;;;;;;;21.02;5.00;;;;;;;19.38;42.07;94281.38;5064894;28;20047;-80
2022/05/13 07:17:42;;;;;;;11.52;4.53;;;;;;;19.45;42.06;94281.50;5046826;28;20024;-79
2022/05/13 07:20:09;;;;;;;9.35;4.40;;;;;;;19.54;41.39;94284.00;5064957;28;20043;-79
2022/05/13 07:22:35;;;;;;;17.00;4.75;;;;;;;19.58;41.96;94281.31;5064606;28;20222;-81
2022/05/13 07:25:01;;;;;;;20.20;4.90;;;;;;;19.67;41.72;94281.88;5064980;28;20092;-80
2022/05/13 07:27:27;;;;;;;9.82;4.30;;;;;;;19.78;41.45;94279.38;5064437;28;20021;-81
2022/05/13 07:29:52;;;;;;;9.75;5.07;;;;;;;19.91;42.00;94274.59;5064589;28;20155;-80
2022/05/13 07:32:18;;;;;;;12.38;4.70;;;;;;;20.04;41.82;94279.41;5064615;28;20020;-81
2022/05/13 07:34:43;;;;;;;20.15;5.63;;;;;;;20.15;40.53;94279.59;5064549;28;20272;-81
2022/05/13 07:37:09;;;;;;;10.90;4.68;;;;;;;20.20;40.54;94279.28;5064661;28;20013;-80
2022/05/13 07:42:19;;;;;;;13.60;5.05;;;;;;;20.39;40.25;94267.59;5064448;28;20083;-80
2022/05/13 07:44:44;;;;;;;12.55;5.00;;;;;;;20.53;39.71;94271.63;5063610;28;20319;-80
2022/05/13 07:47:10;;;;;;;15.80;4.47;;;;;;;20.59;39.61;94260.13;5064301;28;20083;-81
2022/05/13 07:49:38;;;;;;;7.85;4.60;;;;;;;20.64;39.54;94269.88;5064208;28;20025;-81
2022/05/13 07:52:04;;;;;;;13.07;4.65;;;;;;;20.64;39.55;94256.34;5064112;28;20048;-80
2022/05/13 07:54:30;;;;;;;14.65;5.00;;;;;;;20.73;40.11;94264.19;5064372;28;20029;-81
2022/05/13 07:56:55;;;;;;;13.82;5.32;;;;;;;20.75;39.87;94256.47;5064179;28;20326;-80
2022/05/13 07:59:21;;;;;;;9.20;4.53;;;;;;;20.72;40.41;94254.47;5064066;28;20028;-81
2022/05/13 08:01:46;;;;;;;8.43;5.03;;;;;;;20.81;39.97;94260.41;5064031;28;20021;-81
2022/05/13 08:04:12;;;;;;;12.65;4.90;;;;;;;20.90;40.28;94246.59;5064146;28;20017;-81
2022/05/13 08:06:39;;;;;;;15.57;4.82;;;;;;;20.99;39.80;94245.16;5064089;28;20215;-84
2022/05/13 08:09:04;;;;;;;8.65;4.95;;;;;;;21.04;39.47;94250.25;5056700;28;20048;-83
2022/05/13 08:11:30;;;;;;;16.02;4.70;;;;;;;21.13;39.28;94251.91;5064141;28;20035;-81
2022/05/13 08:13:56;;;;;;;22.30;6.45;;;;;;;21.23;38.87;94245.81;5063959;28;20009;-82
2022/05/13 08:16:26;;;;;;;17.92;4.60;;;;;;;21.35;37.78;94250.16;5063731;28;20017;-81
2022/05/13 08:18:53;;;;;;;13.15;5.10;;;;;;;21.32;38.48;94240.84;5063522;28;20025;-82
2022/05/13 08:21:19;;;;;;;9.93;5.03;;;;;;;21.37;38.78;94248.66;5063625;28;20032;-82
2022/05/13 08:23:45;;;;;;;11.48;5.32;;;;;;;21.44;37.21;94242.56;5063700;28;20224;-82
2022/05/13 08:26:11;;;;;;;19.20;5.90;;;;;;;21.43;38.10;94236.34;5063375;28;20035;-83
2022/05/13 08:28:38;;;;;;;12.63;4.90;;;;;;;21.46;38.08;94234.81;5063579;28;20243;-82
2022/05/13 08:31:03;;;;;;;14.23;5.85;;;;;;;21.48;38.61;94234.47;5064131;28;20223;-82
2022/05/13 08:33:29;;;;;;;16.67;4.68;;;;;;;21.43;39.00;94236.34;5063463;28;20025;-85
2022/05/13 08:35:58;;;;;;;17.90;6.28;;;;;;;21.52;38.95;94232.56;5063511;28;20097;-86
2022/05/13 08:38:26;;;;;;;24.40;5.20;;;;;;;21.62;38.59;94232.66;5063144;28;20032;-85
2022/05/13 08:40:52;;;;;;;14.85;5.65;;;;;;;21.69;37.98;94234.63;5062066;28;20029;-83
2022/05/13 08:43:41;;;;;;;11.15;5.60;;;;;;;21.85;38.07;94234.38;5063384;28;20075;-84
2022/05/13 08:46:12;;;;;;;11.38;5.10;;;;;;;21.86;36.61;94221.59;5063015;28;20028;-85
2022/05/13 08:48:53;;;;;;;17.98;4.82;;;;;;;21.84;35.69;94225.47;5063348;28;20024;-85
2022/05/13 08:51:37;;;;;;;15.60;4.47;;;;;;;21.83;35.60;94229.31;5063539;28;20025;-85
2022/05/13 08:54:10;;;;;;;22.15;4.65;;;;;;;21.97;35.91;94225.94;5062855;28;20024;-86
2022/05/13 08:56:36;;;;;;;8.85;4.50;;;;;;;22.02;36.37;94217.47;5062204;28;20024;-86
2022/05/13 08:59:07;;;;;;;12.32;5.35;;;;;;;22.10;35.76;94220.22;5063129;28;20021;-85
2022/05/13 09:01:40;;;;;;;19.75;4.93;;;;;;;22.18;36.07;94213.66;5063280;28;20024;-86
2022/05/13 09:04:35;;;;;;;16.25;5.28;;;;;;;22.35;36.38;94215.00;5063187;28;20020;-86
2022/05/13 09:07:05;;;;;;;10.73;5.47;;;;;;;22.46;35.37;94215.03;5036233;28;20056;-86
2022/05/13 09:09:31;;;;;;;12.80;5.20;;;;;;;22.52;35.15;94200.72;5062790;28;20053;-86
2022/05/13 09:12:02;;;;;;;12.85;4.72;;;;;;;22.41;35.46;94210.75;5044827;28;20258;-86
2022/05/13 09:15:07;;;;;;;10.05;4.97;;;;;;;22.50;34.65;94211.16;5062451;28;20020;-84
2022/05/13 09:17:38;;;;;;;12.35;5.53;;;;;;;22.57;34.98;94205.78;5022426;28;20288;-83
2022/05/13 09:20:14;;;;;;;13.32;4.95;;;;;;;22.63;35.57;94195.31;5062813;28;20100;-86
2022/05/13 09:22:54;;;;;;;25.02;5.20;;;;;;;22.56;34.86;94201.50;5062744;28;20025;-84
2022/05/13 09:25:25;;;;;;;12.35;4.82;;;;;;;22.66;35.00;94191.84;5063258;28;20406;-89
2022/05/13 09:27:57;;;;;;;12.77;5.53;;;;;;;22.77;34.84;94195.38;5062869;28;20322;-88
2022/05/13 09:30:32;;;;;;;11.25;5.63;;;;;;;22.85;34.67;94185.31;5045399;28;20215;-91
2022/05/13 09:33:16;;;;;;;14.38;4.32;;;;;;;22.95;34.65;94183.78;5062815;28;20017;-88
2022/05/13 09:35:42;;;;;;;9.13;5.10;;;;;;;23.03;34.14;94169.09;5045097;28;20066;-87
2022/05/13 09:38:23;;;;;;;17.42;5.32;;;;;;;23.11;34.04;94173.38;5062687;28;20025;-86
2022/05/13 09:41:01;;;;;;;7.95;4.70;;;;;;;23.12;33.89;94161.34;5044444;28;20032;-86
2022/05/13 09:43:40;;;;;;;11.60;5.07;;;;;;;23.13;33.89;94157.47;5063415;28;20096;-86
2022/05/13 09:46:22;;;;;;;14.93;5.32;;;;;;;23.20;34.11;94162.13;5062983;28;20052;-90
2022/05/13 09:49:03;;;;;;;;;;;;;;;23.33;32.94;94157.88;5063681;28;20021;-85
2022/05/13 09:51:35;;;;;;;17.05;4.28;;;;;;;23.44;33.37;94147.78;5062531;28;19927;-87
2022/05/13 09:54:02;;;;;;;9.57;4.05;;;;;;;23.65;33.72;94157.13;5062611;28;20087;-86
2022/05/13 09:56:42;;;;;;;12.95;3.70;;;;;;;23.87;32.96;94144.28;5062437;28;20025;-86
2022/05/13 09:59:24;;;;;;;7.68;3.72;;;;;;;24.00;31.27;94137.28;5062410;28;20028;-87
2022/05/13 10:01:50;;;;;;;;;;;;;;;24.09;31.90;94131.41;5062671;28;20021;-87
2022/05/13 10:04:22;;;;;;;10.00;3.35;;;;;;;24.23;31.48;94122.44;5062579;28;19976;-87
2022/05/13 10:06:48;;;;;;;18.77;3.70;;;;;;;24.34;31.64;94125.91;5045565;28;20028;-88
2022/05/13 10:15:17;;;;;;;9.98;2.53;;;;;;;24.68;27.94;94113.72;5066299;28;20024;-85
2022/05/13 10:17:52;;;;;;;6.80;2.90;;;;;;;24.73;27.94;94103.19;5066455;28;20013;-84
2022/05/13 10:20:35;;;;;;;8.20;2.60;;;;;;;24.86;27.61;94108.97;5066198;28;20315;-85
2022/05/13 10:23:13;;;;;;;4.35;2.63;;;;;;;24.91;29.05;94103.06;5048277;28;20059;-83
2022/05/13 10:25:51;;;;;;;3.60;2.30;;;;;;;24.97;28.92;94106.16;5065969;28;20116;-84
2022/05/13 10:28:19;;;;;;;7.03;2.47;;;;;;;25.16;28.93;94105.66;5065906;28;20048;-82
2022/05/13 10:31:16;;;;;;;14.63;2.92;;;;;;;25.36;28.22;94108.66;5065892;28;20327;-85
2022/05/13 10:34:16;;;;;;;5.93;2.78;;;;;;;25.39;27.28;94096.16;5053001;28;20037;-86
2022/05/13 10:36:54;;;;;;;10.88;2.45;;;;;;;25.37;27.54;94104.75;5065738;28;20023;-84
2022/05/13 10:39:33;;;;;;;11.70;2.58;;;;;;;25.42;26.68;94101.59;5065761;28;20218;-84
2022/05/13 10:42:05;;;;;;;5.85;2.83;;;;;;;25.33;28.08;94098.53;5065725;28;20062;-84
2022/05/13 10:44:37;;;;;;;4.65;2.28;;;;;;;25.48;28.74;94092.97;5065843;28;20029;-84
2022/05/13 10:47:09;;;;;;;7.30;2.78;;;;;;;25.61;28.09;94096.75;5065625;28;20032;-85
2022/05/13 10:49:36;;;;;;;;;;;;;;;25.75;28.42;94091.16;5066039;28;20024;-85
2022/05/13 10:52:13;;;;;;;4.18;2.35;;;;;;;25.89;28.55;94097.66;5065583;28;20142;-85
2022/05/13 10:55:04;;;;;;;7.38;2.90;;;;;;;26.05;27.59;94080.75;5065354;28;20035;-85
2022/05/13 10:58:07;;;;;;;10.68;3.00;;;;;;;26.25;27.14;94083.66;5064957;28;20024;-85
2022/05/13 11:00:57;;;;;;;14.70;2.97;;;;;;;26.39;27.21;94072.56;5065410;28;20229;-85
2022/05/13 11:03:34;;;;;;;5.20;2.75;;;;;;;26.51;26.47;94080.22;5065305;28;20067;-85
2022/05/13 11:06:13;;;;;;;5.80;2.78;;;;;;;26.55;26.48;94075.47;5065240;28;20025;-85
2022/05/13 11:08:56;;;;;;;8.40;3.10;;;;;;;26.70;27.08;94065.16;5064714;28;20067;-85
2022/05/13 11:11:39;;;;;;;5.18;2.65;;;;;;;26.48;26.15;94058.38;5065126;28;20055;-85
2022/05/13 11:14:42;;;;;;;7.50;2.70;;;;;;;26.53;27.41;94063.41;5064870;28;20066;-85
2022/05/13 11:17:23;;;;;;;7.57;2.10;;;;;;;26.75;25.28;94056.50;5065074;28;20029;-85
2022/05/13 11:20:13;;;;;;;13.73;2.65;;;;;;;26.89;25.89;94044.59;5064479;28;20031;-85
2022/05/13 11:22:45;;;;;;;7.40;2.60;;;;;;;27.01;25.74;94046.75;5064893;28;20021;-85
2022/05/13 11:28:39;;;;;;;5.40;2.72;;;;;;;27.29;25.30;94039.28;5064699;28;20032;-85
2022/05/13 11:31:16;;;;;;;5.03;2.28;;;;;;;27.52;24.30;94037.72;5031312;28;20104;-85
2022/05/13 11:33:45;;;;;;;6.78;2.40;;;;;;;27.64;24.51;94031.69;5064630;28;20024;-85
2022/05/13 11:36:28;;;;;;;6.75;2.22;;;;;;;27.74;24.02;94030.72;5064708;28;20028;-85
2022/05/13 11:39:27;;;;;;;6.47;2.40;;;;;;;27.77;24.60;94016.16;5064474;28;20028;-86
2022/05/13 11:42:01;;;;;;;11.63;2.65;;;;;;;27.85;24.33;94024.25;5064348;28;20044;-87
2022/05/13 11:45:01;;;;;;;8.95;2.95;;;;;;;27.92;24.71;94016.69;5064399;28;20025;-84
2022/05/13 11:47:56;;;;;;;13.13;3.17;;;;;;;28.16;25.63;94024.84;5064455;28;20126;-84
2022/05/13 11:50:25;;;;;;;6.55;2.88;;;;;;;28.33;24.06;94020.19;5064365;28;20227;-84
2022/05/13 11:52:53;;;;;;;5.60;2.28;;;;;;;28.31;21.78;94014.38;5064487;28;20088;-84
2022/05/13 11:55:41;;;;;;;5.70;2.95;;;;;;;28.25;23.96;94014.13;5064372;28;20056;-85
2022/05/13 11:58:08;;;;;;;11.13;2.65;;;;;;;28.35;21.90;94010.38;5064115;28;20258;-84
2022/05/13 12:00:36;;;;;;;7.28;2.45;;;;;;;28.42;23.25;94007.47;5064014;28;20028;-84
2022/05/13 12:03:08;;;;;;;15.68;2.45;;;;;;;28.43;21.08;93991.78;5064218;28;20025;-83
2022/05/13 12:05:46;;;;;;;6.57;2.60;;;;;;;28.37;23.28;93993.50;5064019;28;20082;-85
2022/05/13 12:08:17;;;;;;;13.70;2.80;;;;;;;28.44;23.21;93989.84;5064017;28;20048;-84
2022/05/13 12:11:03;;;;;;;16.73;3.00;;;;;;;28.39;23.32;93989.16;5063980;28;20021;-85
2022/05/13 12:13:50;;;;;;;4.72;2.58;;;;;;;28.53;23.49;93985.31;5063905;28;20032;-84
2022/05/13 12:16:40;;;;;;;10.07;2.28;;;;;;;28.65;21.81;93975.66;5063859;28;20039;-85
2022/05/13 12:19:14;;;;;;;5.22;2.22;;;;;;;28.84;22.75;93976.03;5064339;28;20020;-87
2022/05/13 12:21:46;;;;;;;7.03;2.38;;;;;;;29.06;22.21;93977.06;5063892;28;20078;-89
2022/05/13 12:24:11;;;;;;;6.47;2.38;;;;;;;29.24;22.16;93960.19;5063628;28;20031;-87
2022/05/13 12:26:51;;;;;;;10.20;2.50;;;;;;;29.50;21.85;93955.59;5063825;28;20049;-89